sensor_id;sensor_type;location;lat;lon;timestamp;P1;durP1;ratioP1;P2;durP2;ratioP2
10479;SDS011;12789;42.610;23.040;2023-04-26T01:42:02;14.83;;;7.87;;
10479;SDS011;12789;42.610;23.040;2023-04-26T01:44:30;13.60;;;7.80;;
10479;SDS011;12789;42.610;23.040;2023-04-26T01:46:57;13.43;;;8.03;;
10479;SDS011;12789;42.610;23.040;2023-04-26T01:49:27;12.17;;;5.73;;
10479;SDS011;12789;42.610;23.040;2023-04-26T01:52:03;10.63;;;5.73;;
10479;SDS011;12789;42.610;23.040;2023-04-26T01:54:30;13.00;;;6.73;;
10479;SDS011;12789;42.610;23.040;2023-04-26T01:56:58;9.20;;;6.10;;
10479;SDS011;12789;42.610;23.040;2023-04-26T01:59:31;8.33;;;5.67;;
10479;SDS011;12789;42.610;23.040;2023-04-26T02:01:59;8.83;;;5.73;;
10479;SDS011;12789;42.610;23.040;2023-04-26T02:04:35;10.23;;;6.30;;
10479;SDS011;12789;42.610;23.040;2023-04-26T02:07:02;9.40;;;7.00;;
10479;SDS011;12789;42.610;23.040;2023-04-26T03:29:36;18.17;;;7.57;;
10479;SDS011;12789;42.610;23.040;2023-04-26T03:32:03;10.50;;;7.63;;
10479;SDS011;12789;42.610;23.040;2023-04-26T03:34:30;11.27;;;8.20;;
10479;SDS011;12789;42.610;23.040;2023-04-26T03:36:57;9.87;;;7.37;;
10479;SDS011;12789;42.610;23.040;2023-04-26T03:39:24;12.87;;;7.77;;
10479;SDS011;12789;42.610;23.040;2023-04-26T03:41:51;10.40;;;8.17;;
10479;SDS011;12789;42.610;23.040;2023-04-26T03:44:19;14.83;;;9.00;;
10479;SDS011;12789;42.610;23.040;2023-04-26T03:46:47;15.43;;;9.20;;
10479;SDS011;12789;42.610;23.040;2023-04-26T03:49:15;20.03;;;9.67;;
10479;SDS011;12789;42.610;23.040;2023-04-26T03:51:41;21.80;;;10.60;;
10479;SDS011;12789;42.610;23.040;2023-04-26T03:54:12;29.30;;;12.90;;
10479;SDS011;12789;42.610;23.040;2023-04-26T03:56:39;27.47;;;11.87;;
10479;SDS011;12789;42.610;23.040;2023-04-26T03:59:08;24.27;;;12.07;;
10479;SDS011;12789;42.610;23.040;2023-04-26T04:01:35;21.60;;;11.17;;
10479;SDS011;12789;42.610;23.040;2023-04-26T04:04:03;24.47;;;11.43;;
10479;SDS011;12789;42.610;23.040;2023-04-26T04:06:30;16.20;;;10.17;;
10479;SDS011;12789;42.610;23.040;2023-04-26T04:08:58;13.83;;;10.10;;
10479;SDS011;12789;42.610;23.040;2023-04-26T04:11:39;21.83;;;10.90;;
10479;SDS011;12789;42.610;23.040;2023-04-26T04:14:34;16.43;;;10.37;;
10479;SDS011;12789;42.610;23.040;2023-04-26T04:17:46;19.30;;;11.10;;
10479;SDS011;12789;42.610;23.040;2023-04-26T04:42:39;30.13;;;12.90;;
10479;SDS011;12789;42.610;23.040;2023-04-26T04:45:09;32.70;;;13.43;;
10479;SDS011;12789;42.610;23.040;2023-04-26T04:47:36;33.20;;;13.33;;
10479;SDS011;12789;42.610;23.040;2023-04-26T04:50:07;32.33;;;12.57;;
10479;SDS011;12789;42.610;23.040;2023-04-26T04:52:36;39.93;;;13.13;;
10479;SDS011;12789;42.610;23.040;2023-04-26T04:55:08;46.77;;;13.73;;
10479;SDS011;12789;42.610;23.040;2023-04-26T04:57:45;39.07;;;12.60;;
10479;SDS011;12789;42.610;23.040;2023-04-26T05:00:20;31.07;;;12.60;;
10479;SDS011;12789;42.610;23.040;2023-04-26T05:02:54;31.03;;;13.07;;
10479;SDS011;12789;42.610;23.040;2023-04-26T05:05:22;35.60;;;12.70;;
10479;SDS011;12789;42.610;23.040;2023-04-26T05:07:48;35.67;;;13.70;;
10479;SDS011;12789;42.610;23.040;2023-04-26T05:10:16;36.07;;;14.33;;
10479;SDS011;12789;42.610;23.040;2023-04-26T05:12:46;39.97;;;15.33;;
10479;SDS011;12789;42.610;23.040;2023-04-26T05:15:16;36.20;;;15.93;;
10479;SDS011;12789;42.610;23.040;2023-04-26T05:17:46;36.97;;;14.63;;
10479;SDS011;12789;42.610;23.040;2023-04-26T05:20:23;36.43;;;14.80;;
10479;SDS011;12789;42.610;23.040;2023-04-26T05:22:54;33.40;;;13.60;;
10479;SDS011;12789;42.610;23.040;2023-04-26T05:25:24;38.53;;;14.87;;
10479;SDS011;12789;42.610;23.040;2023-04-26T05:27:59;41.43;;;14.20;;
10479;SDS011;12789;42.610;23.040;2023-04-26T05:30:31;39.13;;;15.50;;
10479;SDS011;12789;42.610;23.040;2023-04-26T05:32:58;35.33;;;14.63;;
10479;SDS011;12789;42.610;23.040;2023-04-26T05:35:30;41.40;;;15.10;;
10479;SDS011;12789;42.610;23.040;2023-04-26T05:37:58;36.20;;;15.37;;
10479;SDS011;12789;42.610;23.040;2023-04-26T05:40:30;35.17;;;14.80;;
10479;SDS011;12789;42.610;23.040;2023-04-26T05:42:59;36.63;;;15.50;;
10479;SDS011;12789;42.610;23.040;2023-04-26T05:45:26;31.87;;;13.47;;
10479;SDS011;12789;42.610;23.040;2023-04-26T05:48:01;33.60;;;13.27;;
10479;SDS011;12789;42.610;23.040;2023-04-26T05:50:31;30.03;;;15.00;;
10479;SDS011;12789;42.610;23.040;2023-04-26T05:53:01;35.53;;;14.80;;
10479;SDS011;12789;42.610;23.040;2023-04-26T05:55:46;42.73;;;15.63;;
10479;SDS011;12789;42.610;23.040;2023-04-26T05:58:23;36.93;;;14.47;;
10479;SDS011;12789;42.610;23.040;2023-04-26T06:01:04;28.57;;;13.50;;
10479;SDS011;12789;42.610;23.040;2023-04-26T06:03:36;28.60;;;13.50;;
10479;SDS011;12789;42.610;23.040;2023-04-26T06:06:06;27.93;;;13.70;;
10479;SDS011;12789;42.610;23.040;2023-04-26T06:08:34;22.33;;;10.37;;
10479;SDS011;12789;42.610;23.040;2023-04-26T06:11:01;20.93;;;10.00;;
10479;SDS011;12789;42.610;23.040;2023-04-26T06:13:37;17.50;;;10.00;;
10479;SDS011;12789;42.610;23.040;2023-04-26T06:16:05;18.63;;;9.80;;
10479;SDS011;12789;42.610;23.040;2023-04-26T06:18:33;20.40;;;9.97;;
10479;SDS011;12789;42.610;23.040;2023-04-26T06:21:07;18.60;;;9.43;;
10479;SDS011;12789;42.610;23.040;2023-04-26T06:23:35;11.27;;;7.17;;
10479;SDS011;12789;42.610;23.040;2023-04-26T06:26:05;8.83;;;6.80;;
10479;SDS011;12789;42.610;23.040;2023-04-26T06:28:32;8.40;;;6.83;;
10479;SDS011;12789;42.610;23.040;2023-04-26T06:31:03;9.27;;;6.50;;
10479;SDS011;12789;42.610;23.040;2023-04-26T06:33:30;5.30;;;4.80;;
10479;SDS011;12789;42.610;23.040;2023-04-26T06:36:00;8.37;;;5.30;;
10479;SDS011;12789;42.610;23.040;2023-04-26T06:38:29;6.70;;;5.80;;
10479;SDS011;12789;42.610;23.040;2023-04-26T06:40:59;5.90;;;4.90;;
10479;SDS011;12789;42.610;23.040;2023-04-26T06:43:34;5.37;;;4.97;;
10479;SDS011;12789;42.610;23.040;2023-04-26T06:46:05;5.57;;;5.07;;
10479;SDS011;12789;42.610;23.040;2023-04-26T06:48:34;4.83;;;4.43;;
10479;SDS011;12789;42.610;23.040;2023-04-26T06:51:04;5.87;;;4.90;;
10479;SDS011;12789;42.610;23.040;2023-04-26T06:53:36;5.17;;;4.27;;
10479;SDS011;12789;42.610;23.040;2023-04-26T06:56:08;5.27;;;4.80;;
10479;SDS011;12789;42.610;23.040;2023-04-26T06:58:34;5.67;;;5.17;;
10479;SDS011;12789;42.610;23.040;2023-04-26T07:01:03;5.43;;;4.93;;
10479;SDS011;12789;42.610;23.040;2023-04-26T07:03:33;5.20;;;4.70;;
10479;SDS011;12789;42.610;23.040;2023-04-26T07:06:00;6.70;;;5.30;;
10479;SDS011;12789;42.610;23.040;2023-04-26T07:08:29;5.40;;;5.00;;
10479;SDS011;12789;42.610;23.040;2023-04-26T07:10:59;5.80;;;5.20;;
10479;SDS011;12789;42.610;23.040;2023-04-26T07:13:26;6.33;;;5.37;;
10479;SDS011;12789;42.610;23.040;2023-04-26T07:15:55;6.70;;;5.33;;
10479;SDS011;12789;42.610;23.040;2023-04-26T07:18:32;5.27;;;4.43;;
10479;SDS011;12789;42.610;23.040;2023-04-26T07:21:00;4.30;;;3.80;;
10479;SDS011;12789;42.610;23.040;2023-04-26T07:23:29;3.97;;;3.67;;
10479;SDS011;12789;42.610;23.040;2023-04-26T07:25:56;3.77;;;3.47;;
10479;SDS011;12789;42.610;23.040;2023-04-26T07:28:23;3.47;;;3.17;;
10479;SDS011;12789;42.610;23.040;2023-04-26T07:30:51;3.60;;;3.30;;
10479;SDS011;12789;42.610;23.040;2023-04-26T07:33:18;3.60;;;3.30;;
10479;SDS011;12789;42.610;23.040;2023-04-26T07:35:49;3.27;;;3.07;;
10479;SDS011;12789;42.610;23.040;2023-04-26T07:38:20;5.20;;;3.70;;
10479;SDS011;12789;42.610;23.040;2023-04-26T07:40:49;3.80;;;3.30;;
10479;SDS011;12789;42.610;23.040;2023-04-26T07:43:16;3.80;;;3.40;;
10479;SDS011;12789;42.610;23.040;2023-04-26T07:45:43;3.90;;;3.50;;
10479;SDS011;12789;42.610;23.040;2023-04-26T07:48:10;3.57;;;3.27;;
10479;SDS011;12789;42.610;23.040;2023-04-26T07:50:38;3.30;;;3.00;;
10479;SDS011;12789;42.610;23.040;2023-04-26T07:53:11;3.63;;;3.20;;
10479;SDS011;12789;42.610;23.040;2023-04-26T07:55:41;5.70;;;3.30;;
10479;SDS011;12789;42.610;23.040;2023-04-26T07:58:08;2.90;;;2.70;;
10479;SDS011;12789;42.610;23.040;2023-04-26T08:00:38;2.53;;;2.33;;
10479;SDS011;12789;42.610;23.040;2023-04-26T08:03:05;3.33;;;2.20;;
10479;SDS011;12789;42.610;23.040;2023-04-26T08:05:44;4.57;;;2.50;;
10479;SDS011;12789;42.610;23.040;2023-04-26T08:08:13;2.63;;;2.40;;
10479;SDS011;12789;42.610;23.040;2023-04-26T08:10:40;4.67;;;2.30;;
10479;SDS011;12789;42.610;23.040;2023-04-26T08:13:08;6.60;;;3.03;;
10479;SDS011;12789;42.610;23.040;2023-04-26T08:15:35;2.03;;;1.93;;
10479;SDS011;12789;42.610;23.040;2023-04-26T08:18:02;2.60;;;2.40;;
10479;SDS011;12789;42.610;23.040;2023-04-26T08:20:33;2.10;;;2.00;;
10479;SDS011;12789;42.610;23.040;2023-04-26T08:23:03;2.30;;;2.10;;
10479;SDS011;12789;42.610;23.040;2023-04-26T08:25:34;1.60;;;1.50;;
10479;SDS011;12789;42.610;23.040;2023-04-26T08:28:05;1.73;;;1.63;;
10479;SDS011;12789;42.610;23.040;2023-04-26T08:30:33;2.10;;;2.00;;
10479;SDS011;12789;42.610;23.040;2023-04-26T08:33:00;2.50;;;1.70;;
10479;SDS011;12789;42.610;23.040;2023-04-26T08:35:27;1.90;;;1.80;;
10479;SDS011;12789;42.610;23.040;2023-04-26T08:37:54;3.23;;;1.60;;
10479;SDS011;12789;42.610;23.040;2023-04-26T08:40:23;2.80;;;2.00;;
10479;SDS011;12789;42.610;23.040;2023-04-26T08:42:52;2.40;;;1.73;;
10479;SDS011;12789;42.610;23.040;2023-04-26T08:45:21;4.77;;;1.70;;
10479;SDS011;12789;42.610;23.040;2023-04-26T08:47:49;1.80;;;1.70;;
10479;SDS011;12789;42.610;23.040;2023-04-26T08:50:18;1.87;;;1.77;;
10479;SDS011;12789;42.610;23.040;2023-04-26T08:52:51;2.20;;;1.77;;
10479;SDS011;12789;42.610;23.040;2023-04-26T08:55:20;2.20;;;2.10;;
10479;SDS011;12789;42.610;23.040;2023-04-26T08:58:05;3.05;;;1.73;;
10479;SDS011;12789;42.610;23.040;2023-04-26T09:00:36;2.08;;;1.83;;
10479;SDS011;12789;42.610;23.040;2023-04-26T09:03:05;2.70;;;2.50;;
10479;SDS011;12789;42.610;23.040;2023-04-26T09:05:34;9.17;;;8.10;;
10479;SDS011;12789;42.610;23.040;2023-04-26T09:08:03;3.87;;;3.57;;
10479;SDS011;12789;42.610;23.040;2023-04-26T09:10:33;1.90;;;1.80;;
10479;SDS011;12789;42.610;23.040;2023-04-26T09:13:03;1.70;;;1.52;;
10479;SDS011;12789;42.610;23.040;2023-04-26T09:15:33;1.20;;;1.20;;
10479;SDS011;12789;42.610;23.040;2023-04-26T09:18:14;3.28;;;1.90;;
10479;SDS011;12789;42.610;23.040;2023-04-26T09:20:42;1.90;;;1.80;;
10479;SDS011;12789;42.610;23.040;2023-04-26T09:23:10;1.85;;;1.73;;
10479;SDS011;12789;42.610;23.040;2023-04-26T09:25:37;1.80;;;1.30;;
10479;SDS011;12789;42.610;23.040;2023-04-26T09:28:17;1.50;;;1.40;;
10479;SDS011;12789;42.610;23.040;2023-04-26T09:30:49;1.60;;;1.50;;
10479;SDS011;12789;42.610;23.040;2023-04-26T09:33:19;1.85;;;1.75;;
10479;SDS011;12789;42.610;23.040;2023-04-26T09:35:47;1.58;;;1.48;;
10479;SDS011;12789;42.610;23.040;2023-04-26T09:38:24;2.58;;;1.58;;
10479;SDS011;12789;42.610;23.040;2023-04-26T09:40:51;3.15;;;1.30;;
10479;SDS011;12789;42.610;23.040;2023-04-26T09:43:21;1.52;;;1.38;;
10479;SDS011;12789;42.610;23.040;2023-04-26T09:46:19;1.98;;;1.27;;
10479;SDS011;12789;42.610;23.040;2023-04-26T09:48:45;3.60;;;1.30;;
10479;SDS011;12789;42.610;23.040;2023-04-26T09:51:28;1.50;;;1.40;;
10479;SDS011;12789;42.610;23.040;2023-04-26T09:54:01;1.60;;;1.50;;
10479;SDS011;12789;42.610;23.040;2023-04-26T09:56:34;1.65;;;1.40;;
10479;SDS011;12789;42.610;23.040;2023-04-26T09:59:06;2.10;;;1.45;;
10479;SDS011;12789;42.610;23.040;2023-04-26T10:01:36;2.75;;;1.48;;
10479;SDS011;12789;42.610;23.040;2023-04-26T10:04:04;1.80;;;1.70;;
10479;SDS011;12789;42.610;23.040;2023-04-26T10:06:42;3.83;;;1.00;;
10479;SDS011;12789;42.610;23.040;2023-04-26T10:09:09;1.25;;;1.15;;
10479;SDS011;12789;42.610;23.040;2023-04-26T10:11:49;1.35;;;1.25;;
10479;SDS011;12789;42.610;23.040;2023-04-26T10:14:19;1.38;;;1.27;;
10479;SDS011;12789;42.610;23.040;2023-04-26T10:16:54;2.35;;;1.55;;
10479;SDS011;12789;42.610;23.040;2023-04-26T10:19:38;1.60;;;1.00;;
10479;SDS011;12789;42.610;23.040;2023-04-26T10:22:10;1.67;;;1.10;;
10479;SDS011;12789;42.610;23.040;2023-04-26T10:24:43;1.20;;;0.98;;
10479;SDS011;12789;42.610;23.040;2023-04-26T10:30:28;1.40;;;1.30;;
10479;SDS011;12789;42.610;23.040;2023-04-26T10:36:10;1.35;;;1.25;;
10479;SDS011;12789;42.610;23.040;2023-04-26T10:41:35;1.65;;;1.50;;
10479;SDS011;12789;42.610;23.040;2023-04-26T10:46:56;1.77;;;1.15;;
10479;SDS011;12789;42.610;23.040;2023-04-26T10:49:33;1.63;;;1.15;;
10479;SDS011;12789;42.610;23.040;2023-04-26T10:52:10;2.05;;;1.85;;
10479;SDS011;12789;42.610;23.040;2023-04-26T10:54:44;2.00;;;1.83;;
10479;SDS011;12789;42.610;23.040;2023-04-26T10:57:14;2.80;;;1.58;;
10479;SDS011;12789;42.610;23.040;2023-04-26T11:02:57;1.77;;;1.67;;
10479;SDS011;12789;42.610;23.040;2023-04-26T11:08:23;3.05;;;2.08;;
10479;SDS011;12789;42.610;23.040;2023-04-26T11:11:07;2.65;;;1.80;;
10479;SDS011;12789;42.610;23.040;2023-04-26T11:13:40;1.70;;;1.60;;
10479;SDS011;12789;42.610;23.040;2023-04-26T11:16:16;1.65;;;1.55;;
10479;SDS011;12789;42.610;23.040;2023-04-26T11:18:50;1.98;;;1.80;;
10479;SDS011;12789;42.610;23.040;2023-04-26T11:21:25;3.05;;;1.85;;
10479;SDS011;12789;42.610;23.040;2023-04-26T11:24:09;2.88;;;2.05;;
10479;SDS011;12789;42.610;23.040;2023-04-26T11:26:41;5.00;;;2.70;;
10479;SDS011;12789;42.610;23.040;2023-04-26T11:29:17;2.58;;;2.42;;
10479;SDS011;12789;42.610;23.040;2023-04-26T11:31:49;2.75;;;2.40;;
10479;SDS011;12789;42.610;23.040;2023-04-26T11:34:30;3.40;;;2.78;;
10479;SDS011;12789;42.610;23.040;2023-04-26T11:36:57;3.67;;;2.50;;
10479;SDS011;12789;42.610;23.040;2023-04-26T11:39:33;4.07;;;2.80;;
10479;SDS011;12789;42.610;23.040;2023-04-26T11:42:07;2.30;;;2.20;;
10479;SDS011;12789;42.610;23.040;2023-04-26T11:44:49;4.72;;;2.80;;
10479;SDS011;12789;42.610;23.040;2023-04-26T11:47:18;3.53;;;3.10;;
10479;SDS011;12789;42.610;23.040;2023-04-26T11:49:55;3.38;;;2.15;;
10479;SDS011;12789;42.610;23.040;2023-04-26T11:52:27;2.63;;;2.42;;
10479;SDS011;12789;42.610;23.040;2023-04-26T11:55:00;2.50;;;2.30;;
10479;SDS011;12789;42.610;23.040;2023-04-26T11:57:35;2.53;;;2.33;;
10479;SDS011;12789;42.610;23.040;2023-04-26T12:00:10;2.72;;;2.00;;
10479;SDS011;12789;42.610;23.040;2023-04-26T12:02:39;3.05;;;2.75;;
10479;SDS011;12789;42.610;23.040;2023-04-26T12:05:21;1.98;;;1.88;;
10479;SDS011;12789;42.610;23.040;2023-04-26T12:07:48;2.33;;;2.17;;
10479;SDS011;12789;42.610;23.040;2023-04-26T12:10:23;2.40;;;2.13;;
10479;SDS011;12789;42.610;23.040;2023-04-26T12:12:51;2.15;;;1.70;;
10479;SDS011;12789;42.610;23.040;2023-04-26T12:15:24;2.75;;;1.88;;
10479;SDS011;12789;42.610;23.040;2023-04-26T12:17:58;4.18;;;1.65;;
10479;SDS011;12789;42.610;23.040;2023-04-26T12:20:33;2.40;;;2.15;;
10479;SDS011;12789;42.610;23.040;2023-04-26T12:23:08;1.73;;;1.63;;
10479;SDS011;12789;42.610;23.040;2023-04-26T12:25:38;1.70;;;1.52;;
10479;SDS011;12789;42.610;23.040;2023-04-26T12:28:08;2.50;;;1.92;;
10479;SDS011;12789;42.610;23.040;2023-04-26T12:30:39;2.70;;;2.35;;
10479;SDS011;12789;42.610;23.040;2023-04-26T12:33:09;2.20;;;2.00;;
10479;SDS011;12789;42.610;23.040;2023-04-26T12:35:43;2.00;;;1.80;;
10479;SDS011;12789;42.610;23.040;2023-04-26T12:38:10;2.10;;;1.80;;
10479;SDS011;12789;42.610;23.040;2023-04-26T12:40:39;2.75;;;1.98;;
10479;SDS011;12789;42.610;23.040;2023-04-26T12:43:06;1.80;;;1.70;;
10479;SDS011;12789;42.610;23.040;2023-04-26T12:45:41;1.67;;;1.58;;
10479;SDS011;12789;42.610;23.040;2023-04-26T12:48:08;2.53;;;1.67;;
10479;SDS011;12789;42.610;23.040;2023-04-26T12:50:40;1.65;;;1.55;;
10479;SDS011;12789;42.610;23.040;2023-04-26T12:53:15;1.80;;;1.70;;
10479;SDS011;12789;42.610;23.040;2023-04-26T12:55:45;1.80;;;1.70;;
10479;SDS011;12789;42.610;23.040;2023-04-26T12:58:15;2.75;;;1.98;;
10479;SDS011;12789;42.610;23.040;2023-04-26T13:00:44;2.95;;;1.55;;
10479;SDS011;12789;42.610;23.040;2023-04-26T13:03:11;2.45;;;2.13;;
10479;SDS011;12789;42.610;23.040;2023-04-26T13:05:38;2.22;;;2.05;;
10479;SDS011;12789;42.610;23.040;2023-04-26T13:08:06;1.92;;;1.83;;
10479;SDS011;12789;42.610;23.040;2023-04-26T13:10:40;3.38;;;1.98;;
10479;SDS011;12789;42.610;23.040;2023-04-26T13:13:12;3.83;;;1.70;;
10479;SDS011;12789;42.610;23.040;2023-04-26T13:15:40;2.67;;;1.77;;
10479;SDS011;12789;42.610;23.040;2023-04-26T13:18:08;2.10;;;2.00;;
10479;SDS011;12789;42.610;23.040;2023-04-26T13:20:37;4.70;;;2.10;;
10479;SDS011;12789;42.610;23.040;2023-04-26T13:23:09;2.25;;;2.05;;
10479;SDS011;12789;42.610;23.040;2023-04-26T13:26:04;2.42;;;2.22;;
10479;SDS011;12789;42.610;23.040;2023-04-26T13:28:35;3.13;;;1.92;;
10479;SDS011;12789;42.610;23.040;2023-04-26T13:31:05;2.53;;;2.33;;
10479;SDS011;12789;42.610;23.040;2023-04-26T13:33:35;2.13;;;2.03;;
10479;SDS011;12789;42.610;23.040;2023-04-26T13:36:03;4.63;;;2.30;;
10479;SDS011;12789;42.610;23.040;2023-04-26T13:38:30;2.45;;;2.25;;
10479;SDS011;12789;42.610;23.040;2023-04-26T13:41:01;3.58;;;2.83;;
10479;SDS011;12789;42.610;23.040;2023-04-26T13:46:23;2.80;;;2.35;;
10479;SDS011;12789;42.610;23.040;2023-04-26T13:48:56;3.30;;;2.38;;
10479;SDS011;12789;42.610;23.040;2023-04-26T13:51:42;3.43;;;2.40;;
10479;SDS011;12789;42.610;23.040;2023-04-26T13:54:17;2.60;;;2.40;;
10479;SDS011;12789;42.610;23.040;2023-04-26T13:56:54;3.80;;;2.93;;
10479;SDS011;12789;42.610;23.040;2023-04-26T13:59:22;2.40;;;2.30;;
10479;SDS011;12789;42.610;23.040;2023-04-26T14:01:53;3.65;;;2.80;;
10479;SDS011;12789;42.610;23.040;2023-04-26T14:04:25;2.67;;;2.47;;
10479;SDS011;12789;42.610;23.040;2023-04-26T14:06:52;3.33;;;2.50;;
10479;SDS011;12789;42.610;23.040;2023-04-26T14:09:22;2.87;;;2.67;;
10479;SDS011;12789;42.610;23.040;2023-04-26T14:11:54;3.45;;;2.75;;
10479;SDS011;12789;42.610;23.040;2023-04-26T14:14:22;3.33;;;2.53;;
10479;SDS011;12789;42.610;23.040;2023-04-26T14:16:49;5.15;;;2.60;;
10479;SDS011;12789;42.610;23.040;2023-04-26T14:19:20;4.10;;;3.10;;
10479;SDS011;12789;42.610;23.040;2023-04-26T14:21:53;3.10;;;2.78;;
10479;SDS011;12789;42.610;23.040;2023-04-26T14:24:22;3.30;;;3.10;;
10479;SDS011;12789;42.610;23.040;2023-04-26T14:26:52;3.22;;;3.03;;
10479;SDS011;12789;42.610;23.040;2023-04-26T14:29:21;4.50;;;2.85;;
10479;SDS011;12789;42.610;23.040;2023-04-26T14:31:59;4.40;;;3.30;;
10479;SDS011;12789;42.610;23.040;2023-04-26T14:34:28;4.30;;;3.50;;
10479;SDS011;12789;42.610;23.040;2023-04-26T14:36:55;3.73;;;3.33;;
10479;SDS011;12789;42.610;23.040;2023-04-26T14:39:26;4.27;;;3.27;;
10479;SDS011;12789;42.610;23.040;2023-04-26T14:41:59;4.50;;;3.78;;
10479;SDS011;12789;42.610;23.040;2023-04-26T14:44:30;6.10;;;3.20;;
10479;SDS011;12789;42.610;23.040;2023-04-26T14:47:07;6.03;;;3.33;;
10479;SDS011;12789;42.610;23.040;2023-04-26T14:49:41;4.37;;;3.97;;
10479;SDS011;12789;42.610;23.040;2023-04-26T14:52:07;5.17;;;4.77;;
10479;SDS011;12789;42.610;23.040;2023-04-26T14:54:39;5.33;;;3.97;;
10479;SDS011;12789;42.610;23.040;2023-04-26T14:57:06;6.63;;;4.17;;
10479;SDS011;12789;42.610;23.040;2023-04-26T14:59:33;4.77;;;3.70;;
10479;SDS011;12789;42.610;23.040;2023-04-26T15:02:01;4.27;;;3.87;;
10479;SDS011;12789;42.610;23.040;2023-04-26T15:04:38;3.42;;;3.13;;
10479;SDS011;12789;42.610;23.040;2023-04-26T15:07:07;3.23;;;3.03;;
10479;SDS011;12789;42.610;23.040;2023-04-26T16:20:29;5.53;;;5.03;;
10479;SDS011;12789;42.610;23.040;2023-04-26T16:22:57;7.10;;;5.73;;
10479;SDS011;12789;42.610;23.040;2023-04-26T16:25:34;6.17;;;5.57;;
10479;SDS011;12789;42.610;23.040;2023-04-26T16:28:11;6.23;;;5.63;;
10479;SDS011;12789;42.610;23.040;2023-04-26T16:30:48;7.13;;;5.80;;
10479;SDS011;12789;42.610;23.040;2023-04-26T16:33:26;9.30;;;6.73;;
10479;SDS011;12789;42.610;23.040;2023-04-26T16:39:21;6.90;;;6.20;;
10479;SDS011;12789;42.610;23.040;2023-04-26T16:41:54;7.03;;;6.10;;
10479;SDS011;12789;42.610;23.040;2023-04-26T16:44:39;9.07;;;7.93;;
10479;SDS011;12789;42.610;23.040;2023-04-26T16:47:23;7.77;;;6.40;;
10479;SDS011;12789;42.610;23.040;2023-04-26T16:50:23;7.70;;;6.90;;
10479;SDS011;12789;42.610;23.040;2023-04-26T16:53:08;7.00;;;6.30;;
10479;SDS011;12789;42.610;23.040;2023-04-26T16:59:23;8.40;;;6.50;;
10479;SDS011;12789;42.610;23.040;2023-04-26T17:02:19;6.70;;;6.03;;
10479;SDS011;12789;42.610;23.040;2023-04-26T17:05:03;12.03;;;8.23;;
10479;SDS011;12789;42.610;23.040;2023-04-26T17:08:04;10.57;;;7.67;;
10479;SDS011;12789;42.610;23.040;2023-04-26T17:10:53;7.57;;;6.80;;
10479;SDS011;12789;42.610;23.040;2023-04-26T17:13:50;8.83;;;6.93;;
10479;SDS011;12789;42.610;23.040;2023-04-26T17:23:53;6.93;;;6.07;;
10479;SDS011;12789;42.610;23.040;2023-04-26T17:27:23;7.93;;;6.07;;
10479;SDS011;12789;42.610;23.040;2023-04-26T17:30:09;6.43;;;5.70;;
10479;SDS011;12789;42.610;23.040;2023-04-26T17:33:05;6.60;;;6.00;;
10479;SDS011;12789;42.610;23.040;2023-04-26T17:35:54;6.87;;;6.23;;
10479;SDS011;12789;42.610;23.040;2023-04-26T17:38:59;7.80;;;5.83;;
10479;SDS011;12789;42.610;23.040;2023-04-26T17:42:08;9.60;;;6.47;;
10479;SDS011;12789;42.610;23.040;2023-04-26T17:45:26;9.33;;;7.60;;
10479;SDS011;12789;42.610;23.040;2023-04-26T17:48:10;11.77;;;7.97;;
10479;SDS011;12789;42.610;23.040;2023-04-26T17:50:52;8.57;;;7.33;;
10479;SDS011;12789;42.610;23.040;2023-04-26T17:53:53;11.10;;;7.30;;
10479;SDS011;12789;42.610;23.040;2023-04-26T17:56:37;8.10;;;6.90;;
10479;SDS011;12789;42.610;23.040;2023-04-26T17:59:25;10.20;;;9.10;;
10479;SDS011;12789;42.610;23.040;2023-04-26T18:02:12;8.53;;;7.37;;
10479;SDS011;12789;42.610;23.040;2023-04-26T18:05:13;12.47;;;9.00;;
10479;SDS011;12789;42.610;23.040;2023-04-26T18:10:22;7.30;;;6.60;;
10479;SDS011;12789;42.610;23.040;2023-04-26T18:12:51;6.27;;;5.70;;
10479;SDS011;12789;42.610;23.040;2023-04-26T18:15:23;8.20;;;5.97;;
10479;SDS011;12789;42.610;23.040;2023-04-26T18:17:50;6.73;;;6.13;;
10479;SDS011;12789;42.610;23.040;2023-04-26T18:20:20;6.43;;;5.70;;
10479;SDS011;12789;42.610;23.040;2023-04-26T18:22:50;7.17;;;5.77;;
10479;SDS011;12789;42.610;23.040;2023-04-26T18:25:24;6.93;;;6.23;;
10479;SDS011;12789;42.610;23.040;2023-04-26T18:27:55;6.17;;;5.57;;
10479;SDS011;12789;42.610;23.040;2023-04-26T18:30:39;6.43;;;5.83;;
10479;SDS011;12789;42.610;23.040;2023-04-26T18:33:16;6.90;;;5.97;;
10479;SDS011;12789;42.610;23.040;2023-04-26T18:36:02;5.87;;;5.33;;
10479;SDS011;12789;42.610;23.040;2023-04-26T18:38:36;6.00;;;5.40;;
10479;SDS011;12789;42.610;23.040;2023-04-26T18:41:05;5.47;;;4.97;;
10479;SDS011;12789;42.610;23.040;2023-04-26T18:43:45;6.33;;;5.73;;
10479;SDS011;12789;42.610;23.040;2023-04-26T18:46:19;7.17;;;6.40;;
10479;SDS011;12789;42.610;23.040;2023-04-26T18:48:51;6.20;;;5.60;;
10479;SDS011;12789;42.610;23.040;2023-04-26T18:51:26;6.00;;;5.50;;
10479;SDS011;12789;42.610;23.040;2023-04-26T18:53:59;6.30;;;5.67;;
10479;SDS011;12789;42.610;23.040;2023-04-26T18:56:44;5.87;;;5.37;;
10479;SDS011;12789;42.610;23.040;2023-04-26T18:59:24;6.53;;;5.60;;
10479;SDS011;12789;42.610;23.040;2023-04-26T19:02:08;5.40;;;4.97;;
10479;SDS011;12789;42.610;23.040;2023-04-26T19:04:55;6.47;;;5.67;;
10479;SDS011;12789;42.610;23.040;2023-04-26T19:07:34;5.73;;;5.23;;
10479;SDS011;12789;42.610;23.040;2023-04-26T19:10:27;6.87;;;6.17;;
10479;SDS011;12789;42.610;23.040;2023-04-26T19:13:09;8.57;;;6.00;;
10479;SDS011;12789;42.610;23.040;2023-04-26T19:15:57;11.90;;;6.80;;
10479;SDS011;12789;42.610;23.040;2023-04-26T19:19:06;6.77;;;6.07;;
10479;SDS011;12789;42.610;23.040;2023-04-26T19:22:00;7.70;;;6.33;;
10479;SDS011;12789;42.610;23.040;2023-04-26T19:28:21;7.13;;;6.43;;
10479;SDS011;12789;42.610;23.040;2023-04-26T19:30:59;15.83;;;11.37;;
10479;SDS011;12789;42.610;23.040;2023-04-26T19:33:33;11.10;;;8.87;;
10479;SDS011;12789;42.610;23.040;2023-04-26T19:36:07;9.17;;;7.03;;
10479;SDS011;12789;42.610;23.040;2023-04-26T19:39:10;9.27;;;6.03;;
10479;SDS011;12789;42.610;23.040;2023-04-26T19:41:59;7.57;;;6.57;;
10479;SDS011;12789;42.610;23.040;2023-04-26T19:44:47;8.17;;;6.53;;
10479;SDS011;12789;42.610;23.040;2023-04-26T19:47:39;8.93;;;5.67;;
10479;SDS011;12789;42.610;23.040;2023-04-26T19:50:43;6.97;;;6.03;;
10479;SDS011;12789;42.610;23.040;2023-04-26T19:53:33;7.57;;;6.60;;
10479;SDS011;12789;42.610;23.040;2023-04-26T19:56:11;7.97;;;6.27;;
10479;SDS011;12789;42.610;23.040;2023-04-26T19:59:05;9.17;;;6.50;;
10479;SDS011;12789;42.610;23.040;2023-04-26T20:01:36;7.93;;;6.27;;
10479;SDS011;12789;42.610;23.040;2023-04-26T20:04:15;6.97;;;5.57;;
10479;SDS011;12789;42.610;23.040;2023-04-26T20:07:04;8.87;;;5.93;;
10479;SDS011;12789;42.610;23.040;2023-04-26T20:12:36;6.77;;;5.40;;
10479;SDS011;12789;42.610;23.040;2023-04-26T20:15:09;7.90;;;5.40;;
10479;SDS011;12789;42.610;23.040;2023-04-26T20:17:54;8.77;;;5.10;;
10479;SDS011;12789;42.610;23.040;2023-04-26T20:20:35;8.07;;;5.57;;
10479;SDS011;12789;42.610;23.040;2023-04-26T20:23:14;7.17;;;5.93;;
10479;SDS011;12789;42.610;23.040;2023-04-26T20:26:25;6.87;;;6.13;;
10479;SDS011;12789;42.610;23.040;2023-04-26T20:28:46;10.27;;;6.27;;
10479;SDS011;12789;42.610;23.040;2023-04-26T20:31:18;8.63;;;6.33;;